createdAt,value
2022-09-01T00:00:02.090Z,19.20
2022-09-01T00:02:29.953Z,19.20
2022-09-01T00:04:58.778Z,19.10
2022-09-01T00:07:29.918Z,19.10
2022-09-01T00:09:56.715Z,19.10
2022-09-01T00:12:25.687Z,19.10
2022-09-01T00:14:52.880Z,19.10
2022-09-01T00:17:19.738Z,19.10
2022-09-01T00:19:46.513Z,19.10
2022-09-01T00:22:13.578Z,19.00
2022-09-01T00:24:40.311Z,19.00
2022-09-01T00:27:06.975Z,19.00
2022-09-01T00:29:34.260Z,18.90
2022-09-01T00:32:01.107Z,19.00
2022-09-01T00:34:27.827Z,19.00
2022-09-01T00:36:59.101Z,18.90
2022-09-01T00:39:25.912Z,18.90
2022-09-01T00:41:54.967Z,18.90
2022-09-01T00:44:29.518Z,18.80
2022-09-01T00:46:57.401Z,18.80
2022-09-01T00:49:41.510Z,18.80
2022-09-01T00:52:10.992Z,18.80
2022-09-01T00:54:42.625Z,18.80
2022-09-01T00:57:11.585Z,18.70
2022-09-01T00:59:52.612Z,18.70
2022-09-01T01:02:19.438Z,18.70
2022-09-01T01:04:52.861Z,18.70
2022-09-01T01:07:22.583Z,18.80
2022-09-01T01:09:50.210Z,18.70
2022-09-01T01:12:18.435Z,18.80
2022-09-01T01:14:50.346Z,18.70
2022-09-01T01:17:19.034Z,18.70
2022-09-01T01:20:08.686Z,18.70
2022-09-01T01:23:05.429Z,18.70
2022-09-01T01:25:47.040Z,18.70
2022-09-01T01:28:25.497Z,18.70
2022-09-01T01:30:56.335Z,18.60
2022-09-01T01:33:28.925Z,18.60
2022-09-01T01:35:57.470Z,18.60
2022-09-01T01:38:27.936Z,18.50
2022-09-01T01:40:56.244Z,18.60
2022-09-01T01:43:24.515Z,18.50
2022-09-01T01:45:53.693Z,18.50
2022-09-01T01:48:24.364Z,18.50
2022-09-01T01:50:55.885Z,18.50
2022-09-01T01:53:24.896Z,18.50
2022-09-01T01:55:51.899Z,18.50
2022-09-01T01:58:20.637Z,18.40
2022-09-01T02:00:50.552Z,18.40
2022-09-01T02:03:21.769Z,18.40
2022-09-01T02:05:53.296Z,18.40
2022-09-01T02:08:27.533Z,18.40
2022-09-01T02:11:00.166Z,18.40
2022-09-01T02:13:30.955Z,18.40
2022-09-01T02:16:07.801Z,18.30
2022-09-01T02:18:37.526Z,18.30
2022-09-01T02:21:12.737Z,18.30
2022-09-01T02:23:41.958Z,18.30
2022-09-01T02:26:16.516Z,18.20
2022-09-01T02:28:54.257Z,18.20
2022-09-01T02:31:23.006Z,18.20
2022-09-01T02:33:50.330Z,18.20
2022-09-01T02:36:19.688Z,18.10
2022-09-01T02:38:53.561Z,18.10
2022-09-01T02:41:27.140Z,18.10
2022-09-01T02:43:54.136Z,18.00
2022-09-01T02:46:23.485Z,18.10
2022-09-01T02:48:52.486Z,18.00
2022-09-01T02:51:22.564Z,18.00
2022-09-01T02:53:52.185Z,18.00
2022-09-01T02:56:25.089Z,17.90
2022-09-01T02:58:53.025Z,17.90
2022-09-01T03:01:31.934Z,17.90
2022-09-01T03:04:05.610Z,17.90
2022-09-01T03:06:36.383Z,17.90
2022-09-01T03:09:06.604Z,17.90
2022-09-01T03:11:35.380Z,17.90
2022-09-01T03:14:02.799Z,17.80
2022-09-01T03:16:33.191Z,17.80
2022-09-01T03:19:03.763Z,17.80
2022-09-01T03:21:32.114Z,17.80
2022-09-01T03:24:01.926Z,17.80
2022-09-01T03:26:28.634Z,17.80
2022-09-01T03:28:59.077Z,17.80
2022-09-01T03:31:30.985Z,17.70
2022-09-01T03:34:01.701Z,17.80
2022-09-01T03:36:30.002Z,17.70
2022-09-01T03:38:57.482Z,17.80
2022-09-01T03:41:29.454Z,17.70
2022-09-01T03:43:58.979Z,17.80
2022-09-01T03:46:27.546Z,17.70
2022-09-01T03:49:05.284Z,17.70
2022-09-01T03:51:34.918Z,17.70
2022-09-01T03:54:01.635Z,17.70
2022-09-01T03:56:31.988Z,17.70
2022-09-01T03:58:59.864Z,17.70
2022-09-01T04:01:29.615Z,17.60
2022-09-01T04:03:58.681Z,17.60
2022-09-01T04:06:25.994Z,17.60
2022-09-01T04:08:56.777Z,17.60
2022-09-01T04:11:24.039Z,17.60
2022-09-01T04:13:51.623Z,17.60
2022-09-01T04:16:46.092Z,17.60
2022-09-01T04:19:21.187Z,17.60
2022-09-01T04:21:56.348Z,17.60
2022-09-01T04:24:25.111Z,17.60
2022-09-01T04:26:52.870Z,17.60
2022-09-01T04:29:27.502Z,17.60
2022-09-01T04:32:11.140Z,17.60
2022-09-01T04:34:42.145Z,17.60
2022-09-01T04:37:13.045Z,17.60
2022-09-01T04:39:40.513Z,17.60
2022-09-01T04:42:08.996Z,17.50
2022-09-01T04:44:36.693Z,17.60
2022-09-01T04:47:10.922Z,17.50
2022-09-01T04:49:37.878Z,17.50
2022-09-01T04:52:07.441Z,17.50
2022-09-01T04:54:36.947Z,17.50
2022-09-01T04:57:06.702Z,17.50
2022-09-01T04:59:34.268Z,17.50
2022-09-01T05:02:07.757Z,17.50
2022-09-01T05:04:35.472Z,17.50
2022-09-01T05:07:04.061Z,17.50
2022-09-01T05:09:35.460Z,17.40
2022-09-01T05:12:12.428Z,17.40
2022-09-01T05:14:46.283Z,17.40
2022-09-01T05:17:17.626Z,17.40
2022-09-01T05:19:47.782Z,17.30
2022-09-01T05:22:15.835Z,17.30
2022-09-01T05:24:45.681Z,17.30
2022-09-01T05:27:12.491Z,17.30
2022-09-01T05:29:41.545Z,17.30
2022-09-01T05:32:12.643Z,17.40
2022-09-01T05:34:45.174Z,17.40
2022-09-01T05:37:14.594Z,17.40
2022-09-01T05:39:41.677Z,17.40
2022-09-01T05:42:10.725Z,17.40
2022-09-01T05:44:44.007Z,17.50
2022-09-01T05:47:20.026Z,17.50
2022-09-01T05:49:50.901Z,17.50
2022-09-01T05:52:17.631Z,17.50
2022-09-01T05:54:45.976Z,17.50
2022-09-01T05:57:33.179Z,17.60
2022-09-01T06:00:02.767Z,17.50
2022-09-01T06:02:30.921Z,17.50
2022-09-01T06:04:59.822Z,17.60
2022-09-01T06:07:28.510Z,17.70
2022-09-01T06:10:00.422Z,17.70
2022-09-01T06:12:29.001Z,17.70
2022-09-01T06:14:56.519Z,17.70
2022-09-01T06:17:26.001Z,17.80
2022-09-01T06:19:56.428Z,17.90
2022-09-01T06:22:25.154Z,18.00
2022-09-01T06:24:58.012Z,18.00
2022-09-01T06:27:27.961Z,18.10
2022-09-01T06:29:57.988Z,18.10
2022-09-01T06:32:26.000Z,18.20
2022-09-01T06:34:53.117Z,18.30
2022-09-01T06:37:22.930Z,18.40
2022-09-01T06:39:50.770Z,18.40
2022-09-01T06:42:19.499Z,18.50
2022-09-01T06:44:48.707Z,18.60
2022-09-01T06:47:15.692Z,18.60
2022-09-01T06:49:42.634Z,18.70
2022-09-01T06:52:09.507Z,18.80
2022-09-01T06:54:39.622Z,18.90
2022-09-01T06:59:58.160Z,19.00
2022-09-01T07:02:30.905Z,19.00
2022-09-01T07:05:00.557Z,19.00
2022-09-01T07:10:27.975Z,19.10
2022-09-01T07:13:11.940Z,19.20
2022-09-01T07:18:31.994Z,19.40
2022-09-01T07:24:10.847Z,19.50
2022-09-01T07:26:46.777Z,19.60
2022-09-01T07:29:14.006Z,19.70
2022-09-01T07:32:43.459Z,19.80
2022-09-01T07:34:38.694Z,19.80
2022-09-01T07:42:30.320Z,19.40
2022-09-01T07:45:30.190Z,20.20
2022-09-01T07:48:03.499Z,20.20
2022-09-01T07:50:41.445Z,20.30
2022-09-01T07:53:23.011Z,20.40
2022-09-01T07:55:54.834Z,20.50
2022-09-01T07:58:27.080Z,20.60
2022-09-01T08:00:55.170Z,20.70
2022-09-01T08:03:24.861Z,20.80
2022-09-01T08:05:57.611Z,20.80
2022-09-01T08:08:29.032Z,20.90
2022-09-01T08:11:06.088Z,20.90
2022-09-01T08:13:41.775Z,21.00
2022-09-01T08:16:16.825Z,21.10
2022-09-01T08:18:49.646Z,21.10
2022-09-01T08:21:18.626Z,21.20
2022-09-01T08:23:45.470Z,21.30
2022-09-01T08:26:15.083Z,21.40
2022-09-01T08:28:45.996Z,21.50
2022-09-01T08:31:16.990Z,21.60
2022-09-01T08:33:45.257Z,21.70
2022-09-01T08:36:20.216Z,21.80
2022-09-01T08:38:51.421Z,21.80
2022-09-01T08:41:39.604Z,21.90
2022-09-01T08:44:31.844Z,22.00
2022-09-01T08:47:03.735Z,22.20
2022-09-01T08:49:42.891Z,22.20
2022-09-01T08:52:28.287Z,22.40
2022-09-01T08:55:17.142Z,22.50
2022-09-01T08:57:54.815Z,22.50
2022-09-01T09:00:29.086Z,22.50
2022-09-01T09:03:01.676Z,22.70
2022-09-01T09:05:35.402Z,22.80
2022-09-01T09:08:10.345Z,22.90
2022-09-01T09:11:18.271Z,22.90
2022-09-01T09:14:00.193Z,22.90
2022-09-01T09:16:39.561Z,22.90
2022-09-01T09:19:42.672Z,23.00
2022-09-01T09:22:15.795Z,23.00
2022-09-01T09:24:56.346Z,23.20
2022-09-01T09:27:29.941Z,23.40
2022-09-01T09:30:04.195Z,23.50
2022-09-01T09:35:46.937Z,23.70
2022-09-01T09:38:33.282Z,24.00
2022-09-01T09:41:26.873Z,24.20
2022-09-01T09:44:03.631Z,24.30
2022-09-01T09:46:45.873Z,24.40
2022-09-01T09:49:35.909Z,24.50
2022-09-01T09:52:12.441Z,24.60
2022-09-01T09:55:00.454Z,24.70
2022-09-01T09:57:29.247Z,24.90
2022-09-01T10:00:02.781Z,24.90
2022-09-01T10:02:34.026Z,24.70
2022-09-01T10:05:22.397Z,24.60
2022-09-01T10:07:49.972Z,24.60
2022-09-01T10:10:41.355Z,24.70
2022-09-01T10:13:18.976Z,24.90
2022-09-01T10:15:54.492Z,25.10
2022-09-01T10:18:30.656Z,25.30
2022-09-01T10:21:01.929Z,25.60
2022-09-01T10:23:31.049Z,26.00
2022-09-01T10:26:09.607Z,26.30
2022-09-01T10:28:48.874Z,26.90
2022-09-01T10:31:17.287Z,27.10
2022-09-01T10:33:44.459Z,27.10
2022-09-01T10:36:13.502Z,27.00
2022-09-01T10:38:50.326Z,27.20
2022-09-01T10:42:00.091Z,27.40
2022-09-01T10:44:38.983Z,27.60
2022-09-01T10:47:24.257Z,27.70
2022-09-01T10:49:50.970Z,27.60
2022-09-01T10:52:43.443Z,27.50
2022-09-01T10:55:25.040Z,27.80
2022-09-01T11:01:17.062Z,27.60
2022-09-01T11:03:56.488Z,27.70
2022-09-01T11:06:41.715Z,27.70
2022-09-01T11:09:23.520Z,27.70
2022-09-01T11:11:50.190Z,27.70
2022-09-01T11:14:20.839Z,27.70
2022-09-01T11:17:27.618Z,27.60
2022-09-01T11:20:10.495Z,27.70
2022-09-01T11:22:46.300Z,27.90
2022-09-01T11:25:46.206Z,28.20
2022-09-01T11:28:18.161Z,28.40
2022-09-01T11:30:58.195Z,28.40
2022-09-01T11:33:51.480Z,28.30
2022-09-01T11:36:47.435Z,28.30
2022-09-01T11:39:26.654Z,28.40
2022-09-01T11:42:04.267Z,28.50
2022-09-01T11:44:42.927Z,28.70
2022-09-01T11:47:36.501Z,28.90
2022-09-01T11:50:29.390Z,29.10
2022-09-01T11:53:10.082Z,29.00
2022-09-01T11:55:41.651Z,29.00
2022-09-01T11:58:28.912Z,29.00
2022-09-01T12:01:00.526Z,28.70
2022-09-01T12:03:30.561Z,28.70
2022-09-01T12:06:02.732Z,28.80
2022-09-01T12:08:33.972Z,29.00
2022-09-01T12:11:22.807Z,29.20
2022-09-01T12:14:22.293Z,29.30
2022-09-01T12:17:02.415Z,29.50
2022-09-01T12:19:32.996Z,29.70
2022-09-01T12:22:04.116Z,29.80
2022-09-01T12:24:35.667Z,29.70
2022-09-01T12:27:05.187Z,29.60
2022-09-01T12:29:37.030Z,29.60
2022-09-01T12:32:04.737Z,29.60
2022-09-01T12:34:48.205Z,29.80
2022-09-01T12:37:27.232Z,29.70
2022-09-01T12:39:57.451Z,29.80
2022-09-01T12:42:25.049Z,29.80
2022-09-01T12:44:54.809Z,29.80
2022-09-01T12:47:48.182Z,29.80
2022-09-01T12:50:20.698Z,29.80
2022-09-01T12:52:55.490Z,29.90
2022-09-01T12:58:25.948Z,30.10
2022-09-01T13:01:08.801Z,29.90
2022-09-01T13:04:26.290Z,29.80
2022-09-01T13:06:55.729Z,29.90
2022-09-01T13:09:22.679Z,29.80
2022-09-01T13:12:06.546Z,29.60
2022-09-01T13:14:33.775Z,29.50
2022-09-01T13:17:00.889Z,29.40
2022-09-01T13:19:30.619Z,29.30
2022-09-01T13:21:57.653Z,29.30
2022-09-01T13:24:30.216Z,29.30
2022-09-01T13:29:46.506Z,29.50
2022-09-01T13:32:19.885Z,29.70
2022-09-01T13:34:50.568Z,29.80
2022-09-01T13:37:19.666Z,29.70
2022-09-01T13:39:48.616Z,29.50
2022-09-01T13:42:16.352Z,29.40
2022-09-01T13:44:44.135Z,29.40
2022-09-01T13:50:16.441Z,29.50
2022-09-01T13:52:56.024Z,29.50
2022-09-01T13:55:32.239Z,29.50
2022-09-01T13:57:59.360Z,29.50
2022-09-01T14:00:29.348Z,29.50
2022-09-01T14:02:59.491Z,29.50
2022-09-01T14:05:32.656Z,29.50
2022-09-01T14:08:04.606Z,29.60
2022-09-01T14:10:34.874Z,29.60
2022-09-01T14:13:01.697Z,29.60
2022-09-01T14:15:28.853Z,29.40
2022-09-01T14:18:00.403Z,29.30
2022-09-01T14:20:33.386Z,29.10
2022-09-01T14:23:05.186Z,28.90
2022-09-01T14:25:35.218Z,28.80
2022-09-01T14:28:04.586Z,28.80
2022-09-01T14:30:33.095Z,28.90
2022-09-01T14:33:01.382Z,29.00
2022-09-01T14:35:28.695Z,29.10
2022-09-01T14:37:56.253Z,29.00
2022-09-01T14:40:26.068Z,29.00
2022-09-01T14:42:55.073Z,29.10
2022-09-01T14:45:25.735Z,29.10
2022-09-01T14:47:54.248Z,29.20
2022-09-01T14:50:23.203Z,29.20
2022-09-01T14:52:55.487Z,29.20
2022-09-01T14:55:28.272Z,29.10
2022-09-01T14:57:56.608Z,29.10
2022-09-01T15:00:27.385Z,29.10
2022-09-01T15:02:55.076Z,29.10
2022-09-01T15:05:23.123Z,29.10
2022-09-01T15:07:50.489Z,29.10
2022-09-01T15:10:25.790Z,29.10
2022-09-01T15:13:00.533Z,29.20
2022-09-01T15:15:37.580Z,29.10
2022-09-01T15:18:06.782Z,29.10
2022-09-01T15:20:45.449Z,29.20
2022-09-01T15:23:17.564Z,29.40
2022-09-01T15:25:45.132Z,29.50
2022-09-01T15:28:14.343Z,29.80
2022-09-01T15:30:41.617Z,30.00
2022-09-01T15:33:14.688Z,30.30
2022-09-01T15:35:43.655Z,30.60
2022-09-01T15:38:10.691Z,31.00
2022-09-01T15:40:44.223Z,31.20
2022-09-01T15:43:11.666Z,31.50
2022-09-01T15:45:39.372Z,31.50
2022-09-01T15:48:06.205Z,31.60
2022-09-01T15:50:33.087Z,31.30
2022-09-01T15:53:08.347Z,31.10
2022-09-01T15:55:43.866Z,30.90
2022-09-01T15:58:12.902Z,30.80
2022-09-01T16:00:43.706Z,30.60
2022-09-01T16:03:11.456Z,30.50
2022-09-01T16:05:40.504Z,30.40
2022-09-01T16:08:13.078Z,30.30
2022-09-01T16:10:42.176Z,30.20
2022-09-01T16:13:10.812Z,30.10
2022-09-01T16:15:45.156Z,30.10
2022-09-01T16:18:18.624Z,30.00
2022-09-01T16:21:00.036Z,30.00
2022-09-01T16:23:38.793Z,29.90
2022-09-01T16:26:05.539Z,29.60
2022-09-01T16:28:39.649Z,29.40
2022-09-01T16:31:16.253Z,29.30
2022-09-01T16:33:49.802Z,29.10
2022-09-01T16:36:48.377Z,29.00
2022-09-01T16:40:10.433Z,28.80
2022-09-01T16:42:48.683Z,28.80
2022-09-01T16:45:43.762Z,28.60
2022-09-01T16:48:19.793Z,28.50
2022-09-01T16:51:22.377Z,28.40
2022-09-01T16:54:07.871Z,28.20
2022-09-01T16:56:42.935Z,28.10
2022-09-01T16:59:35.899Z,28.00
2022-09-01T17:02:53.121Z,27.90
2022-09-01T17:05:25.935Z,27.70
2022-09-01T17:08:15.823Z,27.60
2022-09-01T17:11:09.752Z,27.40
2022-09-01T17:13:52.097Z,27.20
2022-09-01T17:16:28.134Z,27.10
2022-09-01T17:19:01.689Z,27.00
2022-09-01T17:21:43.107Z,26.90
2022-09-01T17:24:21.750Z,26.70
2022-09-01T17:26:50.746Z,26.60
2022-09-01T17:29:24.784Z,26.50
2022-09-01T17:32:18.483Z,26.40
2022-09-01T17:35:08.764Z,26.20
2022-09-01T17:37:43.238Z,26.10
2022-09-01T17:40:16.719Z,26.00
2022-09-01T17:42:49.758Z,25.90
2022-09-01T17:45:51.094Z,25.80
2022-09-01T17:48:32.846Z,25.70
2022-09-01T17:51:14.560Z,25.60
2022-09-01T17:54:03.026Z,25.50
2022-09-01T17:56:58.085Z,25.30
2022-09-01T17:59:41.760Z,25.20
2022-09-01T18:02:39.468Z,25.10
2022-09-01T18:05:24.879Z,25.10
2022-09-01T18:08:19.873Z,25.00
2022-09-01T18:11:18.700Z,24.90
2022-09-01T18:13:53.771Z,24.80
2022-09-01T18:16:34.786Z,24.70
2022-09-01T18:19:16.343Z,24.60
2022-09-01T18:21:49.655Z,24.60
2022-09-01T18:24:21.931Z,24.50
2022-09-01T18:26:50.952Z,24.40
2022-09-01T18:29:19.100Z,24.40
2022-09-01T18:31:57.885Z,24.30
2022-09-01T18:34:49.826Z,24.30
2022-09-01T18:37:37.057Z,24.30
2022-09-01T18:40:36.440Z,24.20
2022-09-01T18:43:21.709Z,24.10
2022-09-01T18:46:22.443Z,24.10
2022-09-01T18:49:08.686Z,24.00
2022-09-01T18:51:56.635Z,24.00
2022-09-01T18:54:54.892Z,23.90
2022-09-01T18:57:27.490Z,23.80
2022-09-01T19:00:00.005Z,23.70
2022-09-01T19:02:45.854Z,23.70
2022-09-01T19:05:41.377Z,23.60
2022-09-01T19:08:39.958Z,23.60
2022-09-01T19:11:17.372Z,23.50
2022-09-01T19:14:03.764Z,23.50
2022-09-01T19:16:48.590Z,23.50
2022-09-01T19:19:40.195Z,23.40
2022-09-01T19:22:07.848Z,23.40
2022-09-01T19:25:16.705Z,23.30
2022-09-01T19:27:53.212Z,23.20
2022-09-01T19:30:22.431Z,23.20
2022-09-01T19:32:50.430Z,23.20
2022-09-01T19:35:19.739Z,23.10
2022-09-01T19:37:50.677Z,23.10
2022-09-01T19:40:26.029Z,23.10
2022-09-01T19:43:05.160Z,23.00
2022-09-01T19:45:47.128Z,23.00
2022-09-01T19:49:02.335Z,23.00
2022-09-01T19:51:41.831Z,22.90
2022-09-01T19:54:16.210Z,22.80
2022-09-01T19:56:50.226Z,22.80
2022-09-01T19:59:25.146Z,22.80
2022-09-01T20:02:08.769Z,22.70
2022-09-01T20:04:59.806Z,22.70
2022-09-01T20:07:31.737Z,22.70
2022-09-01T20:10:38.663Z,22.60
2022-09-01T20:13:35.796Z,22.60
2022-09-01T20:16:26.714Z,22.50
2022-09-01T20:19:10.636Z,22.50
2022-09-01T20:21:39.994Z,22.40
2022-09-01T20:24:28.993Z,22.30
2022-09-01T20:27:01.714Z,22.30
2022-09-01T20:29:45.517Z,22.30
2022-09-01T20:32:22.702Z,22.20
2022-09-01T20:34:59.874Z,22.10
2022-09-01T20:37:42.855Z,22.10
2022-09-01T20:40:17.590Z,22.10
2022-09-01T20:42:53.418Z,22.00
2022-09-01T20:45:23.251Z,22.00
2022-09-01T20:48:01.684Z,21.90
2022-09-01T20:50:51.846Z,21.80
2022-09-01T20:53:56.014Z,21.80
2022-09-01T20:56:56.499Z,21.70
2022-09-01T20:59:37.973Z,21.70
2022-09-01T21:02:20.365Z,21.70
2022-09-01T21:04:52.535Z,21.70
2022-09-01T21:07:38.701Z,21.60
2022-09-01T21:10:21.804Z,21.60
2022-09-01T21:13:05.124Z,21.50
2022-09-01T21:15:40.203Z,21.50
2022-09-01T21:18:17.962Z,21.40
2022-09-01T21:21:03.664Z,21.40
2022-09-01T21:23:31.035Z,21.30
2022-09-01T21:25:59.117Z,21.30
2022-09-01T21:28:28.271Z,21.30
2022-09-01T21:30:57.769Z,21.20
2022-09-01T21:33:27.256Z,21.20
2022-09-01T21:35:54.254Z,21.10
2022-09-01T21:38:20.965Z,21.10
2022-09-01T21:40:48.809Z,21.10
2022-09-01T21:43:21.099Z,21.00
2022-09-01T21:45:51.124Z,20.90
2022-09-01T21:48:17.922Z,20.90
2022-09-01T21:50:46.147Z,20.80
2022-09-01T21:53:15.915Z,20.80
2022-09-01T21:55:45.385Z,20.70
2022-09-01T21:58:16.806Z,20.70
2022-09-01T22:00:44.411Z,20.70
2022-09-01T22:03:12.266Z,20.70
2022-09-01T22:05:41.786Z,20.70
2022-09-01T22:08:13.393Z,20.70
2022-09-01T22:10:47.330Z,20.60
2022-09-01T22:13:15.723Z,20.70
2022-09-01T22:15:49.176Z,20.60
2022-09-01T22:18:19.966Z,20.50
2022-09-01T22:20:49.494Z,20.50
2022-09-01T22:23:16.805Z,20.50
2022-09-01T22:25:46.023Z,20.40
2022-09-01T22:28:15.429Z,20.30
2022-09-01T22:30:47.392Z,20.30
2022-09-01T22:33:14.785Z,20.30
2022-09-01T22:35:43.527Z,20.20
2022-09-01T22:38:10.671Z,20.20
2022-09-01T22:40:54.959Z,20.20
2022-09-01T22:43:26.137Z,20.10
2022-09-01T22:45:59.449Z,20.10
2022-09-01T22:48:29.444Z,20.10
2022-09-01T22:50:58.602Z,20.00
2022-09-01T22:53:25.613Z,20.00
2022-09-01T22:55:52.729Z,19.90
2022-09-01T22:58:20.494Z,19.90
2022-09-01T23:00:51.374Z,19.90
2022-09-01T23:03:20.991Z,19.80
2022-09-01T23:05:48.932Z,19.80
2022-09-01T23:08:16.944Z,19.80
2022-09-01T23:10:43.898Z,19.70
2022-09-01T23:13:12.872Z,19.60
2022-09-01T23:15:40.414Z,19.70
2022-09-01T23:18:09.380Z,19.60
2022-09-01T23:20:38.339Z,19.60
2022-09-01T23:23:05.855Z,19.60
2022-09-01T23:25:32.602Z,19.60
2022-09-01T23:27:59.261Z,19.60
2022-09-01T23:30:25.963Z,19.60
2022-09-01T23:32:52.623Z,19.60
2022-09-01T23:35:21.657Z,19.50
2022-09-01T23:37:48.342Z,19.50
2022-09-01T23:40:15.249Z,19.50
2022-09-01T23:42:42.290Z,19.40
2022-09-01T23:45:09.543Z,19.40
2022-09-01T23:47:36.341Z,19.30
2022-09-01T23:50:06.763Z,19.30
2022-09-01T23:52:36.108Z,19.30
2022-09-01T23:55:06.016Z,19.30
2022-09-01T23:57:33.645Z,19.30
